Aviation Digital Data Service (ADDS)

Output produced by METARs form (1115 UTC 24 April 2017)
found at http://www.aviationweather.gov/adds/metars/
 
GVAC 241100Z 04016KT 9999 SCT014 24/18 Q1017 NOSIG
TAF GVAC 241100Z 2412/2518 04016KT 9999 SCT014 
     BECMG 2416/2418 04010KT
       
GVBA 241100Z 04013KT 9999 SCT014 24/19 Q1018 NOSIG
TAF GVBA 241100Z 2412/2518 04016KT 9999 SCT014 
     BECMG 2416/2418 04010KT
       
GVSV 241100Z 06022KT 9999 FEW017 26/19 Q1016 NOSIG
TAF GVSV 241100Z 2412/2518 08022KT 9999 FEW018 
     TEMPO 2412/2418 08022G32KT 
     BECMG 2420/2422 08014KT